createdAt,value
2023-02-04T00:01:06.997Z,41.80
2023-02-04T00:03:08.885Z,41.90
2023-02-04T00:05:12.010Z,41.90
2023-02-04T00:07:13.878Z,42.10
2023-02-04T00:09:16.423Z,42.40
2023-02-04T00:11:18.290Z,42.30
2023-02-04T00:13:20.023Z,42.20
2023-02-04T00:15:24.094Z,42.40
2023-02-04T00:17:25.973Z,42.60
2023-02-04T00:19:27.777Z,42.60
2023-02-04T00:21:29.417Z,42.60
2023-02-04T00:23:31.302Z,42.80
2023-02-04T00:25:33.000Z,43.00
2023-02-04T00:27:34.756Z,42.90
2023-02-04T00:29:38.804Z,42.90
2023-02-04T00:31:40.615Z,42.90
2023-02-04T00:33:43.777Z,43.10
2023-02-04T00:35:45.652Z,43.30
2023-02-04T00:37:48.647Z,43.30
2023-02-04T00:39:50.732Z,43.30
2023-02-04T00:41:52.432Z,43.20
2023-02-04T00:43:54.107Z,43.20
2023-02-04T00:45:55.852Z,43.40
2023-02-04T00:47:57.570Z,43.30
2023-02-04T00:49:59.284Z,43.50
2023-02-04T00:52:03.041Z,43.50
2023-02-04T00:54:05.080Z,43.40
2023-02-04T00:56:09.548Z,43.50
2023-02-04T00:58:11.985Z,43.40
2023-02-04T01:00:15.774Z,43.60
2023-02-04T01:02:21.179Z,43.60
2023-02-04T01:04:23.429Z,43.50
2023-02-04T01:06:26.511Z,43.50
2023-02-04T01:08:28.373Z,43.60
2023-02-04T01:10:30.405Z,43.50
2023-02-04T01:12:32.613Z,43.80
2023-02-04T01:14:34.482Z,43.80
2023-02-04T01:16:36.292Z,44.30
2023-02-04T01:18:38.130Z,43.60
2023-02-04T01:20:42.068Z,43.60
2023-02-04T01:22:43.755Z,43.50
2023-02-04T01:24:45.470Z,43.60
2023-02-04T01:27:05.949Z,43.60
2023-02-04T01:29:12.860Z,43.60
2023-02-04T01:31:19.493Z,43.60
2023-02-04T01:33:23.937Z,43.70
2023-02-04T01:35:25.617Z,43.60
2023-02-04T01:37:27.449Z,43.60
2023-02-04T01:39:29.163Z,43.70
2023-02-04T01:41:32.459Z,43.70
2023-02-04T01:43:34.458Z,43.70
2023-02-04T01:45:37.990Z,43.50
2023-02-04T01:47:40.280Z,43.60
2023-02-04T01:49:42.553Z,43.60
2023-02-04T01:51:44.548Z,43.60
2023-02-04T01:53:46.211Z,43.40
2023-02-04T01:55:48.380Z,43.30
2023-02-04T01:57:53.274Z,43.40
2023-02-04T01:59:56.411Z,43.20
2023-02-04T02:02:00.570Z,43.10
2023-02-04T02:04:02.886Z,43.20
2023-02-04T02:06:07.236Z,43.20
2023-02-04T02:08:12.398Z,43.10
2023-02-04T02:10:15.891Z,43.10
2023-02-04T02:12:18.118Z,43.00
2023-02-04T02:14:20.352Z,43.00
2023-02-04T02:16:22.484Z,42.90
2023-02-04T02:18:25.325Z,42.80
2023-02-04T02:20:29.603Z,42.70
2023-02-04T02:22:50.010Z,42.70
2023-02-04T02:24:51.785Z,42.70
2023-02-04T02:26:55.677Z,42.60
2023-02-04T02:29:00.465Z,42.70
2023-02-04T02:31:02.312Z,42.70
2023-02-04T02:33:05.848Z,42.80
2023-02-04T02:35:08.179Z,43.00
2023-02-04T02:37:10.151Z,42.70
2023-02-04T02:39:12.155Z,42.20
2023-02-04T02:41:13.979Z,41.80
2023-02-04T02:43:19.565Z,41.20
2023-02-04T02:45:27.347Z,41.00
2023-02-04T02:47:29.039Z,40.70
2023-02-04T02:49:33.027Z,40.90
2023-02-04T02:51:36.916Z,40.90
2023-02-04T02:53:38.690Z,40.90
2023-02-04T02:55:41.776Z,40.90
2023-02-04T02:57:46.485Z,40.90
2023-02-04T02:59:50.086Z,40.80
2023-02-04T03:02:01.229Z,40.80
2023-02-04T03:04:04.945Z,40.60
2023-02-04T03:06:13.863Z,40.90
2023-02-04T03:08:16.902Z,40.60
2023-02-04T03:10:21.132Z,40.80
2023-02-04T03:12:22.936Z,41.00
2023-02-04T03:14:26.641Z,41.20
2023-02-04T03:16:32.694Z,41.20
2023-02-04T03:18:35.894Z,41.10
2023-02-04T03:20:39.043Z,41.10
2023-02-04T03:22:40.897Z,41.00
2023-02-04T03:24:42.625Z,41.00
2023-02-04T03:26:52.256Z,40.70
2023-02-04T03:28:57.068Z,40.60
2023-02-04T03:31:01.045Z,40.50
2023-02-04T03:33:02.936Z,40.40
2023-02-04T03:35:04.870Z,40.40
2023-02-04T03:37:09.573Z,40.50
2023-02-04T03:39:11.581Z,40.20
2023-02-04T03:41:13.288Z,40.20
2023-02-04T03:43:14.996Z,40.20
2023-02-04T03:45:16.922Z,40.20
2023-02-04T03:47:21.010Z,40.00
2023-02-04T03:49:23.356Z,39.90
2023-02-04T03:51:25.266Z,39.80
2023-02-04T03:53:29.444Z,39.90
2023-02-04T03:55:33.045Z,39.70
2023-02-04T03:57:34.725Z,39.60
2023-02-04T03:59:36.504Z,39.50
2023-02-04T04:01:38.264Z,39.40
2023-02-04T04:03:40.038Z,39.30
2023-02-04T04:05:41.765Z,39.40
2023-02-04T04:07:43.483Z,39.40
2023-02-04T04:09:47.661Z,39.40
2023-02-04T04:11:51.684Z,39.30
2023-02-04T04:13:53.436Z,39.30
2023-02-04T04:15:55.280Z,39.30
2023-02-04T04:18:00.466Z,39.30
2023-02-04T04:20:02.326Z,39.50
2023-02-04T04:22:04.118Z,39.60
2023-02-04T04:24:08.463Z,39.40
2023-02-04T04:26:10.267Z,39.40
2023-02-04T04:28:12.092Z,39.40
2023-02-04T04:30:14.034Z,39.50
2023-02-04T04:32:16.082Z,39.70
2023-02-04T04:34:17.745Z,39.70
2023-02-04T04:36:19.499Z,39.50
2023-02-04T04:38:21.222Z,39.20
2023-02-04T04:40:22.969Z,39.00
2023-02-04T04:42:27.293Z,39.00
2023-02-04T04:44:28.967Z,38.30
2023-02-04T04:46:32.440Z,38.30
2023-02-04T04:48:35.419Z,38.30
2023-02-04T04:50:37.166Z,38.80
2023-02-04T04:52:39.100Z,38.20
2023-02-04T04:54:40.839Z,38.20
2023-02-04T04:56:42.604Z,38.10
2023-02-04T04:58:46.930Z,38.10
2023-02-04T05:00:48.656Z,38.10
2023-02-04T05:02:50.382Z,38.00
2023-02-04T05:04:52.168Z,38.00
2023-02-04T05:06:53.840Z,37.90
2023-02-04T05:08:57.732Z,37.30
2023-02-04T05:10:59.396Z,37.10
2023-02-04T05:13:04.046Z,36.80
2023-02-04T05:15:06.057Z,36.70
2023-02-04T05:17:08.734Z,37.00
2023-02-04T05:19:10.523Z,37.30
2023-02-04T05:21:12.435Z,37.90
2023-02-04T05:23:16.827Z,37.60
2023-02-04T05:25:18.740Z,37.50
2023-02-04T05:27:20.537Z,37.50
2023-02-04T05:29:24.785Z,37.40
2023-02-04T05:31:59.333Z,37.40
2023-02-04T05:34:01.617Z,37.50
2023-02-04T05:36:03.560Z,37.40
2023-02-04T05:38:05.230Z,38.50
2023-02-04T05:40:07.694Z,38.50
2023-02-04T05:42:09.367Z,38.40
2023-02-04T05:44:11.078Z,38.40
2023-02-04T05:46:12.813Z,38.40
2023-02-04T05:48:14.623Z,38.40
2023-02-04T05:50:16.537Z,38.30
2023-02-04T05:52:18.216Z,38.40
2023-02-04T05:54:21.461Z,38.30
2023-02-04T05:56:25.330Z,38.30
2023-02-04T05:58:33.108Z,38.30
2023-02-04T06:00:38.121Z,38.30
2023-02-04T06:02:39.968Z,38.40
2023-02-04T06:04:42.901Z,38.50
2023-02-04T06:06:46.230Z,38.60
2023-02-04T06:08:48.026Z,38.70
2023-02-04T06:10:50.069Z,38.40
2023-02-04T06:12:54.281Z,38.50
2023-02-04T06:14:56.144Z,38.30
2023-02-04T06:17:00.243Z,38.20
2023-02-04T06:19:02.050Z,38.30
2023-02-04T06:21:04.699Z,38.20
2023-02-04T06:23:06.429Z,38.20
2023-02-04T06:25:08.455Z,38.00
2023-02-04T06:27:10.146Z,37.70
2023-02-04T06:29:11.893Z,37.40
2023-02-04T06:31:20.958Z,37.20
2023-02-04T06:33:24.040Z,37.30
2023-02-04T06:35:25.796Z,37.10
2023-02-04T06:37:27.720Z,36.90
2023-02-04T06:39:29.586Z,36.60
2023-02-04T06:41:35.764Z,36.50
2023-02-04T06:43:39.942Z,36.20
2023-02-04T06:45:42.074Z,36.30
2023-02-04T06:47:43.753Z,36.30
2023-02-04T06:49:45.552Z,36.20
2023-02-04T06:51:49.569Z,36.20
2023-02-04T06:53:54.425Z,36.10
2023-02-04T06:55:57.368Z,35.70
2023-02-04T06:58:08.296Z,36.00
2023-02-04T07:00:11.587Z,35.80
2023-02-04T07:02:15.820Z,35.80
2023-02-04T07:04:17.493Z,35.80
2023-02-04T07:06:21.506Z,35.70
2023-02-04T07:08:23.252Z,35.60
2023-02-04T07:10:27.618Z,35.50
2023-02-04T07:12:29.524Z,35.70
2023-02-04T07:14:31.261Z,35.50
2023-02-04T07:16:37.101Z,35.50
2023-02-04T07:18:38.844Z,35.60
2023-02-04T07:20:40.538Z,35.80
2023-02-04T07:22:44.760Z,35.90
2023-02-04T07:24:46.536Z,36.10
2023-02-04T07:26:48.282Z,35.90
2023-02-04T07:28:50.053Z,36.10
2023-02-04T07:30:52.129Z,36.20
2023-02-04T07:32:53.897Z,36.30
2023-02-04T07:34:55.555Z,36.30
2023-02-04T07:37:00.192Z,36.50
2023-02-04T07:39:01.960Z,36.90
2023-02-04T07:41:03.810Z,36.90
2023-02-04T07:43:06.993Z,36.90
2023-02-04T07:45:09.680Z,36.90
2023-02-04T07:47:11.956Z,37.10
2023-02-04T07:49:13.683Z,37.40
2023-02-04T07:51:15.432Z,37.60
2023-02-04T07:53:17.467Z,37.70
2023-02-04T07:55:19.333Z,37.90
2023-02-04T07:57:21.454Z,38.30
2023-02-04T07:59:23.168Z,38.50
2023-02-04T08:01:24.875Z,38.60
2023-02-04T08:03:28.080Z,38.60
2023-02-04T08:05:30.439Z,38.60
2023-02-04T08:07:32.096Z,38.60
2023-02-04T08:09:34.234Z,38.50
2023-02-04T08:11:36.881Z,38.30
2023-02-04T08:13:38.525Z,38.30
2023-02-04T08:15:40.323Z,38.40
2023-02-04T08:17:42.014Z,38.40
2023-02-04T08:19:43.699Z,38.80
2023-02-04T08:21:47.108Z,38.60
2023-02-04T08:23:50.936Z,38.80
2023-02-04T08:25:52.580Z,38.90
2023-02-04T08:27:54.288Z,39.10
2023-02-04T08:29:59.046Z,39.40
2023-02-04T08:32:03.091Z,39.90
2023-02-04T08:34:08.737Z,40.40
2023-02-04T08:36:10.562Z,41.50
2023-02-04T08:38:12.350Z,41.20
2023-02-04T08:40:14.343Z,41.50
2023-02-04T08:42:17.697Z,41.60
2023-02-04T08:44:22.084Z,41.80
2023-02-04T08:46:28.454Z,41.80
2023-02-04T08:48:35.961Z,41.50
2023-02-04T08:50:39.118Z,41.00
2023-02-04T08:52:40.880Z,40.50
2023-02-04T08:54:45.903Z,40.40
2023-02-04T08:56:50.198Z,40.60
2023-02-04T08:58:55.035Z,40.50
2023-02-04T09:00:56.884Z,40.40
2023-02-04T09:02:58.681Z,39.70
2023-02-04T09:05:00.448Z,38.90
2023-02-04T09:07:02.199Z,38.40
2023-02-04T09:09:03.868Z,38.40
2023-02-04T09:11:05.636Z,37.40
2023-02-04T09:13:09.215Z,37.00
2023-02-04T09:15:11.884Z,36.70
2023-02-04T09:17:13.632Z,36.50
2023-02-04T09:19:16.484Z,36.00
2023-02-04T09:21:18.248Z,35.90
2023-02-04T09:23:19.999Z,36.40
2023-02-04T09:25:21.620Z,36.70
2023-02-04T09:27:28.403Z,36.60
2023-02-04T09:29:31.123Z,36.50
2023-02-04T09:31:34.946Z,36.50
2023-02-04T09:33:37.356Z,36.10
2023-02-04T09:35:39.207Z,35.70
2023-02-04T09:37:43.218Z,35.20
2023-02-04T09:39:45.010Z,35.40
2023-02-04T09:41:49.486Z,35.00
2023-02-04T09:43:51.307Z,34.50
2023-02-04T09:45:54.395Z,33.60
2023-02-04T09:47:58.346Z,32.90
2023-02-04T09:50:00.078Z,32.40
2023-02-04T09:52:01.787Z,32.70
2023-02-04T09:54:15.801Z,32.50
2023-02-04T09:56:19.249Z,31.70
2023-02-04T09:58:31.349Z,32.00
2023-02-04T10:00:34.896Z,31.70
2023-02-04T10:02:36.840Z,32.00
2023-02-04T10:04:38.577Z,31.40
2023-02-04T10:06:42.099Z,31.80
2023-02-04T10:08:45.233Z,31.50
2023-02-04T10:10:49.531Z,31.30
2023-02-04T10:12:58.395Z,30.80
2023-02-04T10:15:00.537Z,30.30
2023-02-04T10:17:02.271Z,30.00
2023-02-04T10:19:07.743Z,29.90
2023-02-04T10:21:17.480Z,29.70
2023-02-04T10:23:19.214Z,29.00
2023-02-04T10:25:26.788Z,29.40
2023-02-04T10:27:28.544Z,28.80
2023-02-04T10:29:30.322Z,29.20
2023-02-04T10:31:40.668Z,29.40
2023-02-04T10:33:42.389Z,28.80
2023-02-04T10:35:49.810Z,29.20
2023-02-04T10:38:05.996Z,28.80
2023-02-04T10:40:26.348Z,28.00
2023-02-04T10:42:30.979Z,27.80
2023-02-04T10:44:36.069Z,28.60
2023-02-04T10:46:38.296Z,27.40
2023-02-04T10:48:41.614Z,27.40
2023-02-04T10:50:43.781Z,27.20
2023-02-04T10:52:51.083Z,27.30
2023-02-04T10:54:52.816Z,27.10
2023-02-04T10:57:24.289Z,27.50
2023-02-04T10:59:27.863Z,27.60
2023-02-04T11:01:30.188Z,27.20
2023-02-04T11:03:33.724Z,27.10
2023-02-04T11:05:36.678Z,27.00
2023-02-04T11:07:38.456Z,27.80
2023-02-04T11:09:43.726Z,27.40
2023-02-04T11:11:47.637Z,26.80
2023-02-04T11:13:53.158Z,26.80
2023-02-04T11:16:25.083Z,26.90
2023-02-04T11:18:30.066Z,26.70
2023-02-04T11:20:33.185Z,27.60
2023-02-04T11:22:44.727Z,27.20
2023-02-04T11:24:46.410Z,26.70
2023-02-04T11:26:51.744Z,27.20
2023-02-04T11:28:59.678Z,26.80
2023-02-04T11:31:03.817Z,25.60
2023-02-04T11:33:21.226Z,26.30
2023-02-04T11:35:33.327Z,25.60
2023-02-04T11:37:39.034Z,25.20
2023-02-04T11:39:50.720Z,25.10
2023-02-04T11:41:52.459Z,24.60
2023-02-04T11:43:55.420Z,24.60
2023-02-04T11:46:14.916Z,23.50
2023-02-04T11:48:19.993Z,23.40
2023-02-04T11:50:34.288Z,24.00
2023-02-04T11:52:38.110Z,23.90
2023-02-04T11:54:39.878Z,24.50
2023-02-04T11:56:41.994Z,24.80
2023-02-04T11:58:43.842Z,25.20
2023-02-04T12:00:45.854Z,25.50
2023-02-04T12:02:50.416Z,26.20
2023-02-04T12:04:53.152Z,25.80
2023-02-04T12:07:03.913Z,25.70
2023-02-04T12:09:24.179Z,24.70
2023-02-04T12:11:30.287Z,24.20
2023-02-04T12:13:34.600Z,24.70
2023-02-04T12:15:36.834Z,24.70
2023-02-04T12:17:40.530Z,24.80
2023-02-04T12:19:42.251Z,24.90
2023-02-04T12:21:43.967Z,24.70
2023-02-04T12:23:48.102Z,24.60
2023-02-04T12:25:50.171Z,24.70
2023-02-04T12:27:52.010Z,24.80
2023-02-04T12:29:53.784Z,24.60
2023-02-04T12:31:55.695Z,24.40
2023-02-04T12:33:58.258Z,24.30
2023-02-04T12:36:00.103Z,24.20
2023-02-04T12:38:05.048Z,24.20
2023-02-04T12:40:10.062Z,24.20
2023-02-04T12:42:11.691Z,24.20
2023-02-04T12:44:15.212Z,24.10
2023-02-04T12:46:18.104Z,24.00
2023-02-04T12:48:23.049Z,23.90
2023-02-04T12:50:26.021Z,24.00
2023-02-04T12:52:27.693Z,24.00
2023-02-04T12:54:29.372Z,23.90
2023-02-04T12:56:31.131Z,23.70
2023-02-04T12:58:32.868Z,23.70
2023-02-04T13:00:34.628Z,23.80
2023-02-04T13:02:36.424Z,23.80
2023-02-04T13:04:40.344Z,23.60
2023-02-04T13:06:44.850Z,23.60
2023-02-04T13:08:46.483Z,23.60
2023-02-04T13:10:51.778Z,23.70
2023-02-04T13:12:56.152Z,23.80
2023-02-04T13:15:10.372Z,23.90
2023-02-04T13:17:12.217Z,24.00
2023-02-04T13:19:13.940Z,24.10
2023-02-04T13:21:15.767Z,24.00
2023-02-04T13:23:17.458Z,23.90
2023-02-04T13:25:21.233Z,24.00
2023-02-04T13:27:24.484Z,23.80
2023-02-04T13:29:26.660Z,23.60
2023-02-04T13:31:28.491Z,23.60
2023-02-04T13:33:30.229Z,23.50
2023-02-04T13:35:36.013Z,23.30
2023-02-04T13:37:40.389Z,23.10
2023-02-04T13:39:44.139Z,23.10
2023-02-04T13:41:46.432Z,23.10
2023-02-04T13:43:48.232Z,23.30
2023-02-04T13:45:50.028Z,23.20
2023-02-04T13:47:52.196Z,23.20
2023-02-04T13:49:53.948Z,22.80
2023-02-04T13:51:55.594Z,22.60
2023-02-04T13:53:58.217Z,22.40
2023-02-04T13:56:02.310Z,22.30
2023-02-04T13:58:04.071Z,22.10
2023-02-04T14:00:07.306Z,22.30
2023-02-04T14:02:15.298Z,22.30
2023-02-04T14:04:17.033Z,22.30
2023-02-04T14:06:21.687Z,22.40
2023-02-04T14:08:23.888Z,22.50
2023-02-04T14:10:26.833Z,22.50
2023-02-04T14:12:28.555Z,22.20
2023-02-04T14:14:30.404Z,22.10
2023-02-04T14:16:32.363Z,22.10
2023-02-04T14:18:35.291Z,22.30
2023-02-04T14:20:37.689Z,22.30
2023-02-04T14:22:39.522Z,22.50
2023-02-04T14:24:42.598Z,22.60
2023-02-04T14:26:44.595Z,22.60
2023-02-04T14:28:46.334Z,22.60
2023-02-04T14:30:54.562Z,22.50
2023-02-04T14:32:57.060Z,22.00
2023-02-04T14:34:59.923Z,22.20
2023-02-04T14:37:01.618Z,22.00
2023-02-04T14:39:03.336Z,22.30
2023-02-04T14:41:05.245Z,22.30
2023-02-04T14:43:08.178Z,22.40
2023-02-04T14:45:11.510Z,22.40
2023-02-04T14:47:13.144Z,22.40
2023-02-04T14:49:15.980Z,22.50
2023-02-04T14:51:20.287Z,22.60
2023-02-04T14:53:24.247Z,22.50
2023-02-04T14:55:27.419Z,22.30
2023-02-04T14:57:30.261Z,21.80
2023-02-04T14:59:31.970Z,21.80
2023-02-04T15:01:36.437Z,21.80
2023-02-04T15:03:38.179Z,22.00
2023-02-04T15:05:46.437Z,22.00
2023-02-04T15:07:49.456Z,22.10
2023-02-04T15:09:53.143Z,22.50
2023-02-04T15:11:55.345Z,22.40
2023-02-04T15:13:57.368Z,22.30
2023-02-04T15:15:59.002Z,21.60
2023-02-04T15:18:00.787Z,21.20
2023-02-04T15:20:03.998Z,21.30
2023-02-04T15:22:05.695Z,21.30
2023-02-04T15:24:08.612Z,21.30
2023-02-04T15:26:10.631Z,21.20
2023-02-04T15:28:14.571Z,21.20
2023-02-04T15:30:20.000Z,21.10
2023-02-04T15:32:21.813Z,21.20
2023-02-04T15:34:23.804Z,21.10
2023-02-04T15:36:30.106Z,21.10
2023-02-04T15:38:31.826Z,21.20
2023-02-04T15:40:33.830Z,21.20
2023-02-04T15:42:36.653Z,21.30
2023-02-04T15:44:38.333Z,21.50
2023-02-04T15:46:40.026Z,21.50
2023-02-04T15:48:41.784Z,21.50
2023-02-04T15:50:43.882Z,21.80
2023-02-04T15:52:46.681Z,21.80
2023-02-04T15:54:48.376Z,21.80
2023-02-04T15:56:50.079Z,22.00
2023-02-04T15:58:54.779Z,22.10
2023-02-04T16:00:57.423Z,22.00
2023-02-04T16:03:00.427Z,22.20
2023-02-04T16:05:02.195Z,22.30
2023-02-04T16:07:08.209Z,22.50
2023-02-04T16:09:10.334Z,22.40
2023-02-04T16:11:12.022Z,22.30
2023-02-04T16:13:15.863Z,22.30
2023-02-04T16:15:18.193Z,22.30
2023-02-04T16:17:22.596Z,22.40
2023-02-04T16:19:24.306Z,22.40
2023-02-04T16:21:26.062Z,22.40
2023-02-04T16:23:30.083Z,22.50
2023-02-04T16:25:32.049Z,22.70
2023-02-04T16:27:33.965Z,22.60
2023-02-04T16:29:35.689Z,22.60
2023-02-04T16:31:39.553Z,22.60
2023-02-04T16:33:41.770Z,22.60
2023-02-04T16:35:59.747Z,22.50
2023-02-04T16:38:01.489Z,22.10
2023-02-04T16:40:05.006Z,22.40
2023-02-04T16:42:08.815Z,22.40
2023-02-04T16:44:10.584Z,22.50
2023-02-04T16:46:15.958Z,22.40
2023-02-04T16:48:18.055Z,22.50
2023-02-04T16:50:21.940Z,22.60
2023-02-04T16:52:25.982Z,22.70
2023-02-04T16:54:28.370Z,22.60
2023-02-04T16:56:35.061Z,22.70
2023-02-04T16:58:44.066Z,22.80
2023-02-04T17:00:45.778Z,22.90
2023-02-04T17:02:47.607Z,22.80
2023-02-04T17:04:49.250Z,22.90
2023-02-04T17:06:51.122Z,22.90
2023-02-04T17:08:54.514Z,22.80
2023-02-04T17:11:15.311Z,22.80
2023-02-04T17:13:17.060Z,22.80
2023-02-04T17:15:18.858Z,22.90
2023-02-04T17:17:20.719Z,22.90
2023-02-04T17:19:25.339Z,23.00
2023-02-04T17:21:28.085Z,23.20
2023-02-04T17:23:29.814Z,23.30
2023-02-04T17:25:31.893Z,23.50
2023-02-04T17:27:36.641Z,23.70
2023-02-04T17:29:38.722Z,23.70
2023-02-04T17:31:44.545Z,24.20
2023-02-04T17:33:47.339Z,23.70
2023-02-04T17:35:49.236Z,23.80
2023-02-04T17:37:51.044Z,23.70
2023-02-04T17:39:53.423Z,23.70
2023-02-04T17:41:55.137Z,23.80
2023-02-04T17:43:56.914Z,23.90
2023-02-04T17:45:58.622Z,23.90
2023-02-04T17:48:02.364Z,24.00
2023-02-04T17:50:07.908Z,24.00
2023-02-04T17:52:09.572Z,24.10
2023-02-04T17:54:12.547Z,24.10
2023-02-04T17:56:14.849Z,24.10
2023-02-04T17:58:21.946Z,24.20
2023-02-04T18:00:28.337Z,24.00
2023-02-04T18:02:33.267Z,24.20
2023-02-04T18:04:35.788Z,24.20
2023-02-04T18:06:37.783Z,24.10
2023-02-04T18:08:40.525Z,24.20
2023-02-04T18:10:49.580Z,24.20
2023-02-04T18:12:51.357Z,24.40
2023-02-04T18:14:54.039Z,24.30
2023-02-04T18:16:58.276Z,24.40
2023-02-04T18:19:15.012Z,24.30
2023-02-04T18:21:27.758Z,24.30
2023-02-04T18:23:34.605Z,24.20
2023-02-04T18:25:37.033Z,24.30
2023-02-04T18:27:38.785Z,24.30
2023-02-04T18:29:44.917Z,24.30
2023-02-04T18:31:52.705Z,24.30
2023-02-04T18:33:56.371Z,24.50
2023-02-04T18:36:01.773Z,24.50
2023-02-04T18:38:19.802Z,24.30
2023-02-04T18:40:32.027Z,24.10
2023-02-04T18:42:36.448Z,24.10
2023-02-04T18:44:38.348Z,24.30
2023-02-04T18:46:46.479Z,24.30
2023-02-04T18:48:50.533Z,24.10
2023-02-04T18:50:54.213Z,24.20
2023-02-04T18:53:02.387Z,24.30
2023-02-04T18:55:21.827Z,24.40
2023-02-04T18:57:41.858Z,24.40
2023-02-04T18:59:43.958Z,24.30
2023-02-04T19:01:49.257Z,24.30
2023-02-04T19:04:04.157Z,24.20
2023-02-04T19:06:29.446Z,24.20
2023-02-04T19:08:43.576Z,24.40
2023-02-04T19:10:45.417Z,24.30
2023-02-04T19:12:47.393Z,24.40
2023-02-04T19:14:49.104Z,24.30
2023-02-04T19:16:53.890Z,24.30
2023-02-04T19:18:56.898Z,24.30
2023-02-04T19:21:22.169Z,24.50
2023-02-04T19:23:26.081Z,24.40
2023-02-04T19:25:32.510Z,24.60
2023-02-04T19:27:36.203Z,24.50
2023-02-04T19:29:42.018Z,24.60
2023-02-04T19:31:45.858Z,24.70
2023-02-04T19:33:50.374Z,24.70
2023-02-04T19:35:52.371Z,24.70
2023-02-04T19:38:08.805Z,24.70
2023-02-04T19:40:32.043Z,24.60
2023-02-04T19:42:36.825Z,24.50
2023-02-04T19:44:42.253Z,24.70
2023-02-04T19:46:44.783Z,24.70
2023-02-04T19:48:46.524Z,24.60
2023-02-04T19:50:50.931Z,24.70
2023-02-04T19:52:59.797Z,24.70
2023-02-04T19:55:32.767Z,24.70
2023-02-04T19:57:38.946Z,24.70
2023-02-04T19:59:42.236Z,24.80
2023-02-04T20:01:44.210Z,24.70
2023-02-04T20:03:47.858Z,24.70
2023-02-04T20:05:49.620Z,24.70
2023-02-04T20:07:51.551Z,24.70
2023-02-04T20:10:17.065Z,24.70
2023-02-04T20:12:32.280Z,24.60
2023-02-04T20:14:45.043Z,24.70
2023-02-04T20:16:59.237Z,24.70
2023-02-04T20:19:13.268Z,24.70
2023-02-04T20:21:21.554Z,24.80
2023-02-04T20:23:27.868Z,25.00
2023-02-04T20:25:41.586Z,25.10
2023-02-04T20:27:43.319Z,25.30
2023-02-04T20:29:45.204Z,25.30
2023-02-04T20:31:47.331Z,25.40
2023-02-04T20:33:57.749Z,25.50
2023-02-04T20:36:21.364Z,25.60
2023-02-04T20:38:26.024Z,25.90
2023-02-04T20:40:35.498Z,25.70
2023-02-04T20:42:45.024Z,25.80
2023-02-04T20:44:48.502Z,25.90
2023-02-04T20:46:50.176Z,25.90
2023-02-04T20:48:52.223Z,25.80
2023-02-04T20:50:57.347Z,25.60
2023-02-04T20:53:10.398Z,25.60
2023-02-04T20:55:24.201Z,25.50
2023-02-04T20:57:27.115Z,25.60
2023-02-04T20:59:36.608Z,25.40
2023-02-04T21:01:47.059Z,25.40
2023-02-04T21:03:55.510Z,25.40
2023-02-04T21:05:59.514Z,25.30
2023-02-04T21:08:02.094Z,25.30
2023-02-04T21:10:04.326Z,25.30
2023-02-04T21:12:06.977Z,25.40
2023-02-04T21:14:09.501Z,25.30
2023-02-04T21:16:11.407Z,25.40
2023-02-04T21:18:13.181Z,25.40
2023-02-04T21:20:15.731Z,25.30
2023-02-04T21:22:17.426Z,25.40
2023-02-04T21:24:19.235Z,25.40
2023-02-04T21:26:20.955Z,25.30
2023-02-04T21:28:22.682Z,25.30
2023-02-04T21:30:29.796Z,25.40
2023-02-04T21:32:38.930Z,25.50
2023-02-04T21:34:45.843Z,25.50
2023-02-04T21:36:47.695Z,25.70
2023-02-04T21:38:49.406Z,25.80
2023-02-04T21:40:51.082Z,26.40
2023-02-04T21:42:53.575Z,26.00
2023-02-04T21:45:06.121Z,26.00
2023-02-04T21:47:11.221Z,26.10
2023-02-04T21:49:13.957Z,26.00
2023-02-04T21:51:15.706Z,26.10
2023-02-04T21:53:17.466Z,26.10
2023-02-04T21:55:21.493Z,26.20
2023-02-04T21:57:23.227Z,26.20
2023-02-04T21:59:25.324Z,26.20
2023-02-04T22:01:27.090Z,26.20
2023-02-04T22:03:28.913Z,26.20
2023-02-04T22:05:30.875Z,26.20
2023-02-04T22:07:34.569Z,26.20
2023-02-04T22:09:38.802Z,26.10
2023-02-04T22:11:40.567Z,26.10
2023-02-04T22:13:49.441Z,25.90
2023-02-04T22:15:51.311Z,25.90
2023-02-04T22:17:55.768Z,25.90
2023-02-04T22:19:57.622Z,26.00
2023-02-04T22:22:00.128Z,26.00
2023-02-04T22:24:11.289Z,26.00
2023-02-04T22:26:12.939Z,26.00
2023-02-04T22:28:14.688Z,26.00
2023-02-04T22:30:17.674Z,26.10
2023-02-04T22:32:19.490Z,26.70
2023-02-04T22:34:21.480Z,26.20
2023-02-04T22:36:23.247Z,26.30
2023-02-04T22:38:24.937Z,26.30
2023-02-04T22:40:26.668Z,26.40
2023-02-04T22:42:28.300Z,26.50
2023-02-04T22:44:30.128Z,26.50
2023-02-04T22:46:31.979Z,26.70
2023-02-04T22:48:33.701Z,26.80
2023-02-04T22:50:35.384Z,26.70
2023-02-04T22:52:37.834Z,26.90
2023-02-04T22:54:40.342Z,27.00
2023-02-04T22:56:42.119Z,27.10
2023-02-04T22:58:46.203Z,27.10
2023-02-04T23:00:47.868Z,27.30
2023-02-04T23:02:49.814Z,27.00
2023-02-04T23:04:51.580Z,27.10
2023-02-04T23:06:58.509Z,27.10
2023-02-04T23:09:00.366Z,27.50
2023-02-04T23:11:04.271Z,27.50
2023-02-04T23:13:06.570Z,27.40
2023-02-04T23:15:11.625Z,27.50
2023-02-04T23:17:14.505Z,27.50
2023-02-04T23:19:19.213Z,27.50
2023-02-04T23:21:22.799Z,27.50
2023-02-04T23:23:28.536Z,27.50
2023-02-04T23:25:34.370Z,27.60
2023-02-04T23:27:36.575Z,27.80
2023-02-04T23:29:39.702Z,27.70
2023-02-04T23:31:41.530Z,27.70
2023-02-04T23:33:46.366Z,27.60
2023-02-04T23:35:48.244Z,27.60
2023-02-04T23:37:50.006Z,27.90
2023-02-04T23:39:51.660Z,28.00
2023-02-04T23:41:53.552Z,28.10
2023-02-04T23:43:56.119Z,28.10
2023-02-04T23:45:59.875Z,28.20
2023-02-04T23:48:01.936Z,28.10
2023-02-04T23:50:04.587Z,28.00
2023-02-04T23:52:07.335Z,28.00
2023-02-04T23:54:10.272Z,28.00
2023-02-04T23:56:12.696Z,27.90
2023-02-04T23:58:16.425Z,28.00
